createdAt,value
2022-09-11T00:00:43.936Z,17.976588628762542
2022-09-11T00:07:10.263Z,16.842809364548494
2022-09-11T00:13:36.136Z,16.752508361204015
2022-09-11T00:20:01.873Z,17.387959866220736
2022-09-11T00:32:12.284Z,17.993311036789297
2022-09-11T00:40:17.017Z,17.82274247491639
2022-09-11T00:55:12.597Z,18.0
2022-09-11T01:05:43.136Z,18.05016722408027
2022-09-11T01:13:25.436Z,17.876254180602007
2022-09-11T01:19:51.284Z,18.535117056856187
2022-09-11T01:26:23.727Z,18.48829431438127
2022-09-11T01:32:50.988Z,19.16722408026756
2022-09-11T01:39:20.536Z,18.91973244147157
2022-09-11T01:45:47.638Z,19.277591973244146
2022-09-11T01:52:15.026Z,19.2809364548495
2022-09-11T01:58:41.237Z,19.391304347826086
2022-09-11T02:05:10.182Z,19.598662207357858
2022-09-11T02:31:49.801Z,18.94648829431438
2022-09-11T02:38:17.825Z,19.023411371237458
2022-09-11T02:49:08.379Z,19.47826086956522
2022-09-11T02:55:36.190Z,19.193979933110366
2022-09-11T03:02:03.271Z,19.94983277591973
2022-09-11T03:08:28.669Z,20.74916387959866
2022-09-11T03:20:45.247Z,21.49163879598662
2022-09-11T03:27:18.918Z,21.668896321070235
2022-09-11T03:33:43.939Z,22.381270903010034
2022-09-11T03:49:46.339Z,24.05016722408027
2022-09-11T03:56:12.284Z,23.34448160535117
2022-09-11T04:04:24.771Z,21.334448160535118
2022-09-11T04:10:50.079Z,20.531772575250837
2022-09-11T04:25:02.306Z,22.531772575250837
2022-09-11T04:31:27.297Z,23.91304347826087
2022-09-11T04:38:26.579Z,24.91638795986622
2022-09-11T04:50:42.659Z,25.923076923076923
2022-09-11T04:57:56.127Z,25.31103678929766
2022-09-11T05:08:44.342Z,23.933110367892976
2022-09-11T05:23:27.348Z,15.48494983277592
2022-09-11T05:31:59.076Z,14.19732441471572
2022-09-11T05:38:24.997Z,12.892976588628763
2022-09-11T05:48:29.802Z,12.327759197324415
2022-09-11T05:54:55.471Z,12.896321070234114
2022-09-11T06:02:26.842Z,13.224080267558529
2022-09-11T06:17:28.002Z,13.832775919732441
2022-09-11T06:23:59.530Z,13.33779264214047
2022-09-11T06:30:24.592Z,15.224080267558529
2022-09-11T06:36:52.261Z,15.33779264214047
2022-09-11T06:43:19.228Z,16.264214046822744
2022-09-11T06:49:44.943Z,16.695652173913043
2022-09-11T07:02:27.434Z,19.367892976588628
2022-09-11T07:13:51.013Z,17.103678929765888
2022-09-11T07:25:07.533Z,15.494983277591974
2022-09-11T07:31:39.553Z,14.006688963210703
2022-09-11T07:38:10.721Z,13.876254180602007
2022-09-11T07:44:36.928Z,13.735785953177258
2022-09-11T07:51:02.916Z,13.117056856187292
2022-09-11T08:11:32.561Z,11.672240802675585
2022-09-11T08:18:12.230Z,11.645484949832776
2022-09-11T08:34:24.272Z,11.85953177257525
2022-09-11T08:40:58.532Z,12.147157190635452
2022-09-11T08:47:35.223Z,12.090301003344482
2022-09-11T08:54:08.973Z,12.036789297658864
2022-09-11T09:01:24.431Z,10.989966555183946
2022-09-11T09:07:57.890Z,10.20401337792642
2022-09-11T09:14:27.403Z,11.033444816053512
2022-09-11T09:20:58.812Z,11.200668896321071
2022-09-11T09:35:50.183Z,10.518394648829432
2022-09-11T09:42:21.687Z,11.036789297658864
2022-09-11T09:54:46.218Z,11.304347826086957
2022-09-11T10:05:21.107Z,10.765886287625419
2022-09-11T10:11:52.497Z,10.364548494983278
2022-09-11T10:18:43.891Z,7.789297658862877
2022-09-11T10:31:12.541Z,7.879598662207358
2022-09-11T10:37:40.921Z,7.7792642140468224
2022-09-11T10:47:09.213Z,6.8762541806020065
2022-09-11T10:53:37.022Z,7.464882943143813
2022-09-11T11:03:50.727Z,7.3244147157190636
2022-09-11T11:10:17.051Z,7.926421404682274
2022-09-11T11:16:43.079Z,7.595317725752508
2022-09-11T11:23:12.289Z,7.2040133779264215
2022-09-11T11:29:42.179Z,7.809364548494983
2022-09-11T11:36:08.337Z,7.498327759197324
2022-09-11T11:42:33.372Z,6.973244147157191
2022-09-11T11:48:55.364Z,7.438127090301004
2022-09-11T11:55:17.298Z,7.351170568561873
2022-09-11T12:01:40.213Z,7.234113712374582
2022-09-11T12:08:02.621Z,7.394648829431438
2022-09-11T12:14:26.149Z,7.752508361204013
2022-09-11T12:20:50.522Z,6.65886287625418
2022-09-11T12:27:26.081Z,6.354515050167224
2022-09-11T12:33:48.383Z,6.5719063545150505
2022-09-11T12:40:11.937Z,6.591973244147157
2022-09-11T12:46:34.698Z,5.882943143812709
2022-09-11T12:52:59.315Z,4.973244147157191
2022-09-11T12:59:23.283Z,4.361204013377926
2022-09-11T13:07:50.453Z,3.280936454849498
2022-09-11T13:14:13.304Z,2.862876254180602
2022-09-11T13:20:35.858Z,1.899665551839465
2022-09-11T13:26:59.371Z,1.9096989966555185
2022-09-11T13:33:20.802Z,1.4180602006688963
2022-09-11T13:44:35.814Z,0.9364548494983278
2022-09-11T13:53:39.866Z,0.8260869565217391
2022-09-11T14:00:01.477Z,1.193979933110368
2022-09-11T14:06:23.574Z,0.9297658862876255
2022-09-11T14:12:44.916Z,0.5618729096989966
2022-09-11T14:19:06.365Z,0.6354515050167224
2022-09-11T14:25:27.951Z,0.4983277591973244
2022-09-11T14:32:03.662Z,0.7157190635451505
2022-09-11T14:38:25.512Z,0.7525083612040134
2022-09-11T14:44:48.104Z,0.68561872909699
2022-09-11T14:51:13.357Z,0.7123745819397993
2022-09-11T14:57:35.674Z,0.14381270903010032
2022-09-11T15:03:58.476Z,0.09698996655518395
2022-09-11T15:10:19.967Z,0.13377926421404682
2022-09-11T15:16:41.409Z,0.31438127090301005
2022-09-11T15:23:04.053Z,0.36789297658862874
2022-09-11T15:29:31.181Z,0.12709030100334448
2022-09-11T15:35:54.238Z,0.3076923076923077
2022-09-11T15:42:15.977Z,0.1505016722408027
2022-09-11T15:48:38.395Z,0.08361204013377926
2022-09-11T15:55:00.743Z,0.28762541806020064
2022-09-11T16:01:23.627Z,0.16722408026755853
2022-09-11T16:07:46.527Z,0.2508361204013378
2022-09-11T16:14:09.748Z,0.3612040133779264
2022-09-11T16:28:55.905Z,0.32441471571906355
2022-09-11T16:35:18.566Z,0.22408026755852842
2022-09-11T16:41:41.216Z,0.451505016722408
2022-09-11T16:48:06.731Z,0.3110367892976589
2022-09-11T16:56:46.067Z,0.2608695652173913
2022-09-11T17:10:18.229Z,0.36454849498327757
2022-09-11T17:16:42.000Z,0.4983277591973244
2022-09-11T17:23:06.242Z,0.8394648829431438
2022-09-11T17:29:29.840Z,0.8528428093645485
2022-09-11T17:35:53.920Z,0.9565217391304348
2022-09-11T17:42:18.258Z,1.3578595317725752
2022-09-11T17:53:13.945Z,1.3411371237458194
2022-09-11T17:59:37.443Z,1.4949832775919731
2022-09-11T18:06:02.825Z,1.7625418060200668
2022-09-11T18:14:01.647Z,1.9264214046822743
2022-09-11T18:32:37.207Z,2.2040133779264215
2022-09-11T18:39:06.144Z,2.20066889632107
2022-09-11T18:45:37.253Z,3.0735785953177257
2022-09-11T18:56:15.479Z,4.682274247491639
2022-09-11T19:02:46.548Z,6.454849498327759
2022-09-11T19:09:15.169Z,7.093645484949833
2022-09-11T19:16:00.338Z,8.68227424749164
2022-09-11T19:22:28.106Z,10.521739130434783
2022-09-11T19:28:56.759Z,12.48494983277592
2022-09-11T19:36:40.274Z,12.240802675585284
2022-09-11T19:43:13.494Z,11.578595317725753
2022-09-11T19:49:48.524Z,11.397993311036789
2022-09-11T19:56:27.181Z,11.826086956521738
2022-09-11T20:03:47.144Z,12.832775919732441
2022-09-11T20:10:18.292Z,12.959866220735785
2022-09-11T20:20:22.409Z,18.809364548494983
2022-09-11T20:28:12.186Z,33.247491638795985
2022-09-11T20:34:46.188Z,40.58862876254181
2022-09-11T20:41:26.424Z,44.585284280936456
2022-09-11T20:48:03.412Z,38.52842809364549
2022-09-11T20:54:35.807Z,27.785953177257525
2022-09-11T21:05:10.987Z,15.37123745819398
2022-09-11T21:11:41.227Z,9.384615384615385
2022-09-11T21:18:08.812Z,7.036789297658863
2022-09-11T21:24:36.173Z,5.862876254180602
2022-09-11T21:31:06.135Z,5.1003344481605355
2022-09-11T21:37:36.047Z,5.538461538461538
2022-09-11T21:44:06.270Z,5.424749163879599
2022-09-11T21:50:34.583Z,5.424749163879599
2022-09-11T21:57:02.782Z,5.4280936454849495
2022-09-11T22:03:29.513Z,5.481605351170568
2022-09-11T22:09:58.182Z,5.59866220735786
2022-09-11T22:16:38.263Z,5.913043478260869
2022-09-11T22:26:35.356Z,6.408026755852843
2022-09-11T22:38:58.046Z,6.301003344481606
2022-09-11T22:45:25.721Z,6.605351170568562
2022-09-11T22:51:56.468Z,6.829431438127091
2022-09-11T22:58:26.970Z,6.5719063545150505
2022-09-11T23:04:56.774Z,6.59866220735786
2022-09-11T23:19:26.818Z,7.491638795986622
2022-09-11T23:25:55.981Z,7.107023411371237
2022-09-11T23:32:23.302Z,7.187290969899665
2022-09-11T23:42:09.280Z,7.525083612040134
2022-09-11T23:52:25.388Z,7.933110367892977
